createdAt,value
2024-01-10T00:00:37.257Z,93.80
2024-01-10T00:01:37.261Z,93.95
2024-01-10T00:02:37.224Z,93.70
2024-01-10T00:03:37.272Z,93.91
2024-01-10T00:04:37.226Z,93.84
2024-01-10T00:05:37.194Z,93.74
2024-01-10T00:06:37.324Z,94.12
2024-01-10T00:07:37.248Z,93.84
2024-01-10T00:08:37.152Z,93.91
2024-01-10T00:09:37.175Z,93.91
2024-01-10T00:10:37.149Z,93.70
2024-01-10T00:11:37.130Z,94.27
2024-01-10T00:12:37.198Z,94.27
2024-01-10T00:13:37.137Z,94.17
2024-01-10T00:14:37.103Z,93.70
2024-01-10T00:15:37.077Z,93.74
2024-01-10T00:16:37.183Z,93.84
2024-01-10T00:17:37.193Z,93.63
2024-01-10T00:18:37.157Z,93.14
2024-01-10T00:19:37.070Z,93.57
2024-01-10T00:20:37.383Z,93.35
2024-01-10T00:21:37.022Z,93.35
2024-01-10T00:22:37.048Z,93.52
2024-01-10T00:23:37.017Z,93.35
2024-01-10T00:24:37.002Z,93.35
2024-01-10T00:25:37.050Z,93.14
2024-01-10T00:26:36.965Z,93.35
2024-01-10T00:27:36.998Z,93.35
2024-01-10T00:28:36.964Z,93.57
2024-01-10T00:29:37.038Z,93.60
2024-01-10T00:30:36.970Z,93.29
2024-01-10T00:31:36.968Z,93.18
2024-01-10T00:32:37.057Z,93.93
2024-01-10T00:33:36.949Z,93.93
2024-01-10T00:34:37.187Z,93.24
2024-01-10T00:35:36.870Z,93.60
2024-01-10T00:36:36.866Z,94.14
2024-01-10T00:37:36.888Z,94.03
2024-01-10T00:38:36.830Z,94.21
2024-01-10T00:39:36.841Z,93.88
2024-01-10T00:40:36.848Z,93.99
2024-01-10T00:41:36.803Z,93.99
2024-01-10T00:42:36.822Z,93.78
2024-01-10T00:43:36.816Z,93.78
2024-01-10T00:44:36.792Z,93.88
2024-01-10T00:45:36.806Z,93.99
2024-01-10T00:46:36.797Z,93.88
2024-01-10T00:47:36.765Z,93.78
2024-01-10T00:48:36.824Z,94.31
2024-01-10T00:49:36.790Z,93.99
2024-01-10T00:50:36.709Z,93.88
2024-01-10T00:51:36.694Z,93.46
2024-01-10T00:52:36.715Z,93.35
2024-01-10T00:53:36.707Z,93.35
2024-01-10T00:54:36.663Z,93.78
2024-01-10T00:55:36.681Z,93.67
2024-01-10T00:56:36.643Z,93.78
2024-01-10T00:57:36.628Z,93.93
2024-01-10T00:58:36.681Z,93.39
2024-01-10T00:59:36.607Z,94.03
2024-01-10T01:00:36.638Z,94.03
2024-01-10T01:01:36.635Z,94.03
2024-01-10T01:02:36.590Z,94.03
2024-01-10T01:03:36.651Z,93.93
2024-01-10T01:04:36.650Z,94.03
2024-01-10T01:05:36.699Z,93.97
2024-01-10T01:06:36.536Z,94.03
2024-01-10T01:07:36.562Z,93.71
2024-01-10T01:08:36.569Z,93.93
2024-01-10T01:09:36.509Z,93.71
2024-01-10T01:10:38.325Z,93.82
2024-01-10T01:11:36.504Z,93.71
2024-01-10T01:12:36.506Z,93.82
2024-01-10T01:13:36.518Z,93.60
2024-01-10T01:14:36.470Z,93.43
2024-01-10T01:15:36.445Z,93.29
2024-01-10T01:16:36.464Z,93.86
2024-01-10T01:17:36.473Z,93.76
2024-01-10T01:18:36.468Z,93.97
2024-01-10T01:19:36.502Z,93.97
2024-01-10T01:20:36.439Z,93.76
2024-01-10T01:21:36.404Z,93.97
2024-01-10T01:22:36.425Z,94.03
2024-01-10T01:23:41.816Z,93.33
2024-01-10T01:24:37.379Z,94.07
2024-01-10T01:25:36.395Z,94.07
2024-01-10T01:26:36.333Z,93.97
2024-01-10T01:27:36.314Z,94.18
2024-01-10T01:28:36.534Z,93.86
2024-01-10T01:29:36.364Z,93.97
2024-01-10T01:30:36.319Z,93.29
2024-01-10T01:31:36.333Z,93.97
2024-01-10T01:32:36.300Z,93.97
2024-01-10T01:33:36.321Z,93.43
2024-01-10T01:34:36.308Z,94.07
2024-01-10T01:35:36.249Z,94.03
2024-01-10T01:36:36.245Z,93.86
2024-01-10T01:37:36.251Z,93.50
2024-01-10T01:38:36.204Z,93.71
2024-01-10T01:39:36.200Z,93.22
2024-01-10T01:40:36.259Z,93.82
2024-01-10T01:41:36.169Z,93.50
2024-01-10T01:42:36.182Z,93.97
2024-01-10T01:43:36.254Z,93.86
2024-01-10T01:44:36.157Z,93.86
2024-01-10T01:45:36.141Z,93.97
2024-01-10T01:46:36.145Z,94.18
2024-01-10T01:47:36.126Z,93.86
2024-01-10T01:48:36.163Z,93.97
2024-01-10T01:49:36.246Z,94.07
2024-01-10T01:50:36.125Z,93.97
2024-01-10T01:51:36.099Z,93.43
2024-01-10T01:52:36.252Z,94.12
2024-01-10T01:53:36.044Z,93.69
2024-01-10T01:54:36.055Z,93.59
2024-01-10T01:55:36.040Z,94.12
2024-01-10T01:56:36.035Z,94.01
2024-01-10T01:57:36.012Z,94.01
2024-01-10T01:58:36.037Z,93.69
2024-01-10T01:59:35.997Z,93.80
2024-01-10T02:00:36.028Z,93.59
2024-01-10T02:01:35.977Z,93.80
2024-01-10T02:02:36.068Z,93.80
2024-01-10T02:03:36.138Z,93.80
2024-01-10T02:04:35.989Z,94.23
2024-01-10T02:05:36.022Z,94.23
2024-01-10T02:06:35.923Z,94.12
2024-01-10T02:07:35.976Z,94.44
2024-01-10T02:08:35.903Z,94.44
2024-01-10T02:09:35.872Z,94.54
2024-01-10T02:10:36.034Z,94.33
2024-01-10T02:11:35.853Z,94.12
2024-01-10T02:12:35.879Z,94.12
2024-01-10T02:13:35.896Z,94.44
2024-01-10T02:14:35.830Z,94.44
2024-01-10T02:15:35.815Z,93.95
2024-01-10T02:16:35.899Z,94.16
2024-01-10T02:17:35.816Z,94.12
2024-01-10T02:18:35.902Z,93.52
2024-01-10T02:19:35.798Z,93.52
2024-01-10T02:20:35.756Z,94.16
2024-01-10T02:21:35.746Z,93.52
2024-01-10T02:22:35.917Z,94.48
2024-01-10T02:23:35.730Z,94.37
2024-01-10T02:24:35.721Z,94.31
2024-01-10T02:25:35.785Z,94.09
2024-01-10T02:26:35.693Z,94.31
2024-01-10T02:27:35.701Z,94.42
2024-01-10T02:28:35.694Z,94.09
2024-01-10T02:29:35.674Z,94.16
2024-01-10T02:30:35.707Z,94.09
2024-01-10T02:31:35.742Z,94.09
2024-01-10T02:32:35.709Z,94.05
2024-01-10T02:33:35.706Z,93.99
2024-01-10T02:34:35.720Z,94.09
2024-01-10T02:35:35.617Z,93.99
2024-01-10T02:36:35.633Z,93.66
2024-01-10T02:37:35.627Z,94.09
2024-01-10T02:38:35.674Z,94.20
2024-01-10T02:39:35.593Z,93.66
2024-01-10T02:40:35.678Z,94.24
2024-01-10T02:41:35.551Z,94.09
2024-01-10T02:42:35.534Z,94.20
2024-01-10T02:43:35.582Z,93.88
2024-01-10T02:44:35.523Z,94.20
2024-01-10T02:45:35.505Z,94.20
2024-01-10T02:46:35.546Z,94.20
2024-01-10T02:47:35.576Z,94.31
2024-01-10T02:48:35.521Z,94.24
2024-01-10T02:49:35.582Z,94.42
2024-01-10T02:50:35.492Z,94.31
2024-01-10T02:51:35.429Z,94.46
2024-01-10T02:52:35.480Z,94.31
2024-01-10T02:53:35.445Z,94.31
2024-01-10T02:54:35.418Z,94.09
2024-01-10T02:55:35.432Z,94.20
2024-01-10T02:56:35.401Z,93.88
2024-01-10T02:57:35.378Z,94.09
2024-01-10T02:58:35.384Z,94.31
2024-01-10T02:59:35.358Z,94.20
2024-01-10T03:00:35.409Z,94.35
2024-01-10T03:01:35.392Z,94.63
2024-01-10T03:02:35.383Z,94.35
2024-01-10T03:03:35.339Z,94.46
2024-01-10T03:04:35.345Z,94.46
2024-01-10T03:05:35.327Z,94.74
2024-01-10T03:06:35.283Z,94.31
2024-01-10T03:07:35.282Z,94.31
2024-01-10T03:08:35.257Z,94.52
2024-01-10T03:09:35.318Z,94.42
2024-01-10T03:10:35.342Z,94.09
2024-01-10T03:11:35.231Z,94.52
2024-01-10T03:12:35.216Z,94.74
2024-01-10T03:13:35.310Z,94.35
2024-01-10T03:14:35.201Z,94.56
2024-01-10T03:15:35.192Z,94.20
2024-01-10T03:16:35.287Z,94.84
2024-01-10T03:17:35.209Z,95.27
2024-01-10T03:18:35.263Z,95.27
2024-01-10T03:19:35.204Z,95.27
2024-01-10T03:20:35.129Z,95.17
2024-01-10T03:21:35.115Z,95.38
2024-01-10T03:22:35.148Z,95.48
2024-01-10T03:23:35.110Z,95.48
2024-01-10T03:24:35.095Z,95.06
2024-01-10T03:25:35.100Z,95.34
2024-01-10T03:26:35.269Z,95.06
2024-01-10T03:27:35.068Z,94.74
2024-01-10T03:28:35.077Z,95.38
2024-01-10T03:29:35.040Z,94.95
2024-01-10T03:30:35.115Z,95.06
2024-01-10T03:31:35.057Z,95.06
2024-01-10T03:32:35.191Z,95.17
2024-01-10T03:33:35.120Z,95.27
2024-01-10T03:34:35.059Z,94.84
2024-01-10T03:35:34.973Z,94.89
2024-01-10T03:36:34.960Z,95.06
2024-01-10T03:37:35.035Z,95.17
2024-01-10T03:38:34.938Z,94.89
2024-01-10T03:39:34.930Z,95.10
2024-01-10T03:40:35.058Z,94.84
2024-01-10T03:41:34.917Z,94.89
2024-01-10T03:42:34.913Z,94.95
2024-01-10T03:43:34.885Z,95.00
2024-01-10T03:44:34.882Z,94.78
2024-01-10T03:45:34.882Z,94.84
2024-01-10T03:46:34.864Z,95.10
2024-01-10T03:47:34.886Z,94.89
2024-01-10T03:48:34.873Z,95.06
2024-01-10T03:49:34.821Z,95.21
2024-01-10T03:50:34.825Z,95.48
2024-01-10T03:51:34.814Z,95.27
2024-01-10T03:52:34.811Z,95.31
2024-01-10T03:53:34.777Z,95.31
2024-01-10T03:54:34.764Z,95.21
2024-01-10T03:55:34.753Z,95.42
2024-01-10T03:56:35.497Z,95.42
2024-01-10T03:57:34.734Z,94.89
2024-01-10T03:58:34.727Z,95.10
2024-01-10T03:59:34.713Z,94.89
2024-01-10T04:00:34.706Z,95.00
2024-01-10T04:01:35.109Z,95.00
2024-01-10T04:02:34.785Z,94.89
2024-01-10T04:03:34.741Z,95.10
2024-01-10T04:04:34.689Z,94.89
2024-01-10T04:05:34.890Z,95.00
2024-01-10T04:06:34.668Z,95.31
2024-01-10T04:07:34.638Z,96.02
2024-01-10T04:08:34.643Z,95.92
2024-01-10T04:09:34.626Z,95.59
2024-01-10T04:10:34.607Z,95.74
2024-01-10T04:11:34.583Z,95.70
2024-01-10T04:12:34.578Z,95.81
2024-01-10T04:13:34.578Z,95.74
2024-01-10T04:14:34.559Z,95.81
2024-01-10T04:15:34.560Z,95.70
2024-01-10T04:16:34.552Z,95.92
2024-01-10T04:17:34.717Z,95.48
2024-01-10T04:18:34.631Z,95.70
2024-01-10T04:19:34.520Z,95.70
2024-01-10T04:20:34.715Z,95.70
2024-01-10T04:21:34.504Z,95.70
2024-01-10T04:22:34.487Z,95.70
2024-01-10T04:23:34.475Z,95.59
2024-01-10T04:24:34.474Z,95.70
2024-01-10T04:25:34.444Z,95.70
2024-01-10T04:26:34.431Z,95.81
2024-01-10T04:27:34.425Z,95.70
2024-01-10T04:28:34.411Z,95.81
2024-01-10T04:29:34.489Z,95.59
2024-01-10T04:30:34.448Z,95.74
2024-01-10T04:31:34.381Z,95.74
2024-01-10T04:32:34.537Z,95.64
2024-01-10T04:33:34.484Z,96.06
2024-01-10T04:34:34.352Z,95.21
2024-01-10T04:35:34.395Z,95.10
2024-01-10T04:36:34.368Z,95.96
2024-01-10T04:37:34.330Z,95.21
2024-01-10T04:38:34.366Z,95.31
2024-01-10T04:39:34.296Z,95.57
2024-01-10T04:40:34.293Z,96.06
2024-01-10T04:41:34.284Z,95.48
2024-01-10T04:42:34.271Z,96.17
2024-01-10T04:43:34.281Z,95.53
2024-01-10T04:44:34.263Z,95.85
2024-01-10T04:45:34.244Z,96.17
2024-01-10T04:46:34.228Z,96.06
2024-01-10T04:47:34.275Z,95.74
2024-01-10T04:48:34.283Z,95.74
2024-01-10T04:49:34.193Z,95.74
2024-01-10T04:50:34.233Z,96.17
2024-01-10T04:51:34.177Z,96.17
2024-01-10T04:52:34.635Z,96.17
2024-01-10T04:53:34.159Z,95.74
2024-01-10T04:54:34.152Z,95.74
2024-01-10T04:55:34.132Z,95.85
2024-01-10T04:56:34.221Z,95.74
2024-01-10T04:57:34.148Z,95.64
2024-01-10T04:58:34.108Z,95.78
2024-01-10T04:59:34.093Z,96.06
2024-01-10T05:00:34.117Z,95.96
2024-01-10T05:01:34.086Z,95.85
2024-01-10T05:02:34.135Z,95.85
2024-01-10T05:03:34.140Z,95.78
2024-01-10T05:04:34.047Z,95.64
2024-01-10T05:05:34.168Z,96.00
2024-01-10T05:06:34.044Z,95.78
2024-01-10T05:07:34.012Z,95.36
2024-01-10T05:08:34.028Z,94.93
2024-01-10T05:09:34.036Z,95.36
2024-01-10T05:10:33.981Z,95.47
2024-01-10T05:11:33.980Z,95.04
2024-01-10T05:12:33.985Z,95.36
2024-01-10T05:13:33.941Z,95.47
2024-01-10T05:14:33.928Z,95.42
2024-01-10T05:15:33.984Z,95.10
2024-01-10T05:16:33.930Z,95.53
2024-01-10T05:17:33.974Z,96.17
2024-01-10T05:18:33.915Z,95.53
2024-01-10T05:19:33.895Z,95.74
2024-01-10T05:20:34.040Z,95.85
2024-01-10T05:21:33.865Z,95.74
2024-01-10T05:22:33.873Z,95.85
2024-01-10T05:23:33.843Z,95.31
2024-01-10T05:24:33.850Z,95.53
2024-01-10T05:25:33.824Z,95.53
2024-01-10T05:26:33.812Z,95.64
2024-01-10T05:27:33.799Z,95.42
2024-01-10T05:28:33.790Z,95.64
2024-01-10T05:29:33.769Z,95.74
2024-01-10T05:30:33.865Z,95.74
2024-01-10T05:31:33.749Z,95.64
2024-01-10T05:32:33.809Z,95.42
2024-01-10T05:33:33.781Z,95.42
2024-01-10T05:34:33.748Z,95.38
2024-01-10T05:35:33.729Z,95.74
2024-01-10T05:36:33.700Z,95.42
2024-01-10T05:37:33.697Z,95.53
2024-01-10T05:38:33.679Z,95.64
2024-01-10T05:39:34.597Z,95.64
2024-01-10T05:40:33.679Z,95.89
2024-01-10T05:41:33.647Z,95.85
2024-01-10T05:42:33.663Z,95.74
2024-01-10T05:43:33.629Z,95.85
2024-01-10T05:44:33.633Z,95.96
2024-01-10T05:45:33.603Z,95.96
2024-01-10T05:46:33.595Z,95.74
2024-01-10T05:47:33.739Z,96.11
2024-01-10T05:48:33.874Z,95.96
2024-01-10T05:49:33.599Z,95.74
2024-01-10T05:50:33.564Z,95.78
2024-01-10T05:51:33.576Z,96.22
2024-01-10T05:52:33.535Z,96.22
2024-01-10T05:53:33.575Z,95.78
2024-01-10T05:54:33.538Z,95.14
2024-01-10T05:55:33.504Z,95.78
2024-01-10T05:56:33.513Z,95.25
2024-01-10T05:57:33.474Z,96.11
2024-01-10T05:58:33.498Z,95.14
2024-01-10T05:59:33.509Z,96.11
2024-01-10T06:00:33.525Z,95.25
2024-01-10T06:01:33.444Z,95.83
2024-01-10T06:02:33.511Z,95.29
2024-01-10T06:03:33.464Z,96.15
2024-01-10T06:04:33.414Z,95.85
2024-01-10T06:05:33.529Z,95.96
2024-01-10T06:06:33.477Z,95.74
2024-01-10T06:07:33.621Z,95.64
2024-01-10T06:08:33.370Z,95.42
2024-01-10T06:09:33.352Z,95.74
2024-01-10T06:10:36.583Z,95.53
2024-01-10T06:11:33.345Z,95.42
2024-01-10T06:12:33.362Z,95.53
2024-01-10T06:13:41.995Z,95.21
2024-01-10T06:14:34.326Z,95.68
2024-01-10T06:15:33.308Z,95.64
2024-01-10T06:16:33.287Z,95.21
2024-01-10T06:17:33.398Z,95.21
2024-01-10T06:18:33.358Z,95.64
2024-01-10T06:19:33.248Z,95.47
2024-01-10T06:20:33.351Z,95.64
2024-01-10T06:21:33.323Z,95.64
2024-01-10T06:22:33.223Z,95.64
2024-01-10T06:23:33.205Z,95.74
2024-01-10T06:24:33.200Z,95.74
2024-01-10T06:25:33.185Z,95.81
2024-01-10T06:26:33.181Z,95.48
2024-01-10T06:27:33.184Z,95.70
2024-01-10T06:28:33.169Z,95.38
2024-01-10T06:29:33.140Z,95.48
2024-01-10T06:30:33.195Z,95.38
2024-01-10T06:31:33.140Z,95.42
2024-01-10T06:32:33.217Z,95.48
2024-01-10T06:33:33.144Z,95.48
2024-01-10T06:34:33.096Z,95.38
2024-01-10T06:35:33.145Z,95.59
2024-01-10T06:36:33.088Z,95.70
2024-01-10T06:37:34.545Z,95.74
2024-01-10T06:38:33.219Z,95.53
2024-01-10T06:39:33.045Z,95.53
2024-01-10T06:40:33.041Z,96.11
2024-01-10T06:41:33.111Z,95.96
2024-01-10T06:42:33.003Z,95.74
2024-01-10T06:43:32.998Z,96.00
2024-01-10T06:44:33.074Z,95.74
2024-01-10T06:45:33.007Z,96.17
2024-01-10T06:46:32.961Z,95.31
2024-01-10T06:47:33.062Z,96.00
2024-01-10T06:48:32.998Z,96.22
2024-01-10T06:49:33.052Z,96.22
2024-01-10T06:50:33.043Z,96.22
2024-01-10T06:51:32.920Z,95.68
2024-01-10T06:52:32.902Z,95.78
2024-01-10T06:53:32.922Z,95.85
2024-01-10T06:54:32.896Z,95.89
2024-01-10T06:55:32.919Z,95.68
2024-01-10T06:56:32.886Z,95.78
2024-01-10T06:57:32.845Z,95.68
2024-01-10T06:58:32.845Z,95.83
2024-01-10T06:59:32.888Z,95.68
2024-01-10T07:00:32.883Z,95.78
2024-01-10T07:01:32.817Z,95.94
2024-01-10T07:02:32.977Z,95.61
2024-01-10T07:03:32.858Z,95.83
2024-01-10T07:04:32.789Z,95.94
2024-01-10T07:05:32.969Z,95.94
2024-01-10T07:06:32.803Z,95.94
2024-01-10T07:07:32.751Z,95.83
2024-01-10T07:08:32.821Z,95.89
2024-01-10T07:09:32.743Z,95.83
2024-01-10T07:10:32.705Z,95.68
2024-01-10T07:11:32.758Z,95.68
2024-01-10T07:12:32.692Z,95.74
2024-01-10T07:13:32.704Z,95.78
2024-01-10T07:14:32.765Z,95.64
2024-01-10T07:15:32.660Z,95.74
2024-01-10T07:16:34.056Z,95.64
2024-01-10T07:17:32.913Z,95.74
2024-01-10T07:18:32.713Z,95.74
2024-01-10T07:19:32.621Z,95.68
2024-01-10T07:20:32.632Z,95.68
2024-01-10T07:21:32.643Z,95.57
2024-01-10T07:22:32.588Z,95.68
2024-01-10T07:23:32.949Z,95.42
2024-01-10T07:24:33.049Z,95.64
2024-01-10T07:25:32.590Z,95.42
2024-01-10T07:26:32.606Z,95.53
2024-01-10T07:27:32.598Z,95.64
2024-01-10T07:28:32.572Z,95.53
2024-01-10T07:29:32.557Z,95.53
2024-01-10T07:30:32.640Z,95.47
2024-01-10T07:31:32.657Z,95.68
2024-01-10T07:32:32.603Z,95.64
2024-01-10T07:33:32.658Z,95.64
2024-01-10T07:34:32.537Z,95.78
2024-01-10T07:35:32.526Z,95.64
2024-01-10T07:36:32.510Z,96.11
2024-01-10T07:37:32.454Z,95.89
2024-01-10T07:38:32.473Z,96.00
2024-01-10T07:39:32.412Z,95.74
2024-01-10T07:40:32.403Z,95.78
2024-01-10T07:41:32.481Z,95.74
2024-01-10T07:42:32.384Z,95.96
2024-01-10T07:43:32.393Z,95.74
2024-01-10T07:44:32.369Z,95.74
2024-01-10T07:45:32.349Z,95.74
2024-01-10T07:46:32.735Z,95.81
2024-01-10T07:47:32.371Z,96.02
2024-01-10T07:48:32.591Z,95.92
2024-01-10T07:49:32.307Z,95.59
2024-01-10T07:50:32.383Z,95.48
2024-01-10T07:51:32.313Z,95.70
2024-01-10T07:52:32.270Z,95.81
2024-01-10T07:53:32.318Z,95.59
2024-01-10T07:54:32.265Z,95.65
2024-01-10T07:55:32.263Z,95.55
2024-01-10T07:56:32.300Z,95.76
2024-01-10T07:57:32.238Z,95.34
2024-01-10T07:58:32.218Z,95.55
2024-01-10T07:59:32.247Z,95.40
2024-01-10T08:00:32.210Z,95.34
2024-01-10T08:01:32.319Z,95.44
2024-01-10T08:02:32.189Z,95.76
2024-01-10T08:03:32.197Z,95.65
2024-01-10T08:04:32.156Z,95.61
2024-01-10T08:05:32.261Z,95.51
2024-01-10T08:06:33.690Z,95.61
2024-01-10T08:07:32.116Z,95.72
2024-01-10T08:08:32.132Z,95.29
2024-01-10T08:09:32.093Z,95.61
2024-01-10T08:10:32.097Z,95.61
2024-01-10T08:11:32.081Z,95.51
2024-01-10T08:12:32.074Z,95.51
2024-01-10T08:13:32.055Z,95.61
2024-01-10T08:14:32.099Z,95.51
2024-01-10T08:15:32.054Z,95.51
2024-01-10T08:16:32.020Z,95.61
2024-01-10T08:17:32.162Z,95.40
2024-01-10T08:18:32.049Z,95.57
2024-01-10T08:19:32.054Z,95.36
2024-01-10T08:20:32.074Z,95.47
2024-01-10T08:21:31.989Z,95.57
2024-01-10T08:22:31.967Z,95.57
2024-01-10T08:23:31.964Z,95.21
2024-01-10T08:24:31.959Z,95.53
2024-01-10T08:25:31.971Z,95.42
2024-01-10T08:26:32.081Z,95.53
2024-01-10T08:27:31.945Z,95.47
2024-01-10T08:28:31.917Z,95.53
2024-01-10T08:29:31.917Z,95.42
2024-01-10T08:30:31.882Z,95.31
2024-01-10T08:31:31.865Z,95.53
2024-01-10T08:32:31.960Z,95.53
2024-01-10T08:33:32.161Z,95.31
2024-01-10T08:34:31.873Z,95.49
2024-01-10T08:35:31.887Z,95.28
2024-01-10T08:36:31.834Z,95.23
2024-01-10T08:37:31.806Z,95.34
2024-01-10T08:38:32.482Z,95.34
2024-01-10T08:39:31.820Z,95.34
2024-01-10T08:40:34.226Z,95.29
2024-01-10T08:41:31.779Z,95.62
2024-01-10T08:42:31.763Z,95.40
2024-01-10T08:43:31.748Z,95.51
2024-01-10T08:44:31.759Z,95.51
2024-01-10T08:45:31.717Z,95.62
2024-01-10T08:46:31.701Z,95.47
2024-01-10T08:47:31.763Z,95.68
2024-01-10T08:48:31.763Z,95.25
2024-01-10T08:49:31.706Z,94.93
2024-01-10T08:50:31.676Z,94.93
2024-01-10T08:51:31.663Z,94.93
2024-01-10T08:52:31.681Z,94.51
2024-01-10T08:53:31.713Z,94.40
2024-01-10T08:54:31.626Z,94.72
2024-01-10T08:55:31.617Z,94.46
2024-01-10T08:56:31.700Z,94.51
2024-01-10T08:57:31.638Z,94.68
2024-01-10T08:58:31.578Z,94.78
2024-01-10T08:59:31.686Z,94.74
2024-01-10T09:00:31.645Z,94.95
2024-01-10T09:01:31.553Z,94.95
2024-01-10T09:02:31.559Z,94.21
2024-01-10T09:03:31.550Z,94.85
2024-01-10T09:04:31.933Z,94.42
2024-01-10T09:05:31.644Z,93.78
2024-01-10T09:06:31.550Z,94.10
2024-01-10T09:07:31.490Z,93.63
2024-01-10T09:08:31.517Z,93.42
2024-01-10T09:09:31.461Z,93.74
2024-01-10T09:10:31.480Z,93.52
2024-01-10T09:11:32.302Z,93.95
2024-01-10T09:12:31.428Z,93.70
2024-01-10T09:13:31.462Z,93.80
2024-01-10T09:14:31.425Z,93.70
2024-01-10T09:15:31.408Z,93.59
2024-01-10T09:16:31.388Z,93.38
2024-01-10T09:17:31.495Z,93.48
2024-01-10T09:18:31.455Z,93.59
2024-01-10T09:19:31.375Z,93.55
2024-01-10T09:20:31.468Z,93.55
2024-01-10T09:21:31.339Z,93.66
2024-01-10T09:22:31.322Z,92.91
2024-01-10T09:23:31.356Z,92.97
2024-01-10T09:24:31.326Z,92.76
2024-01-10T09:25:31.319Z,92.72
2024-01-10T09:26:31.303Z,93.15
2024-01-10T09:27:31.271Z,92.72
2024-01-10T09:28:31.261Z,92.89
2024-01-10T09:29:31.304Z,92.68
2024-01-10T09:30:31.262Z,92.79
2024-01-10T09:31:31.226Z,93.00
2024-01-10T09:32:31.438Z,93.00
2024-01-10T09:33:31.280Z,93.00
2024-01-10T09:34:31.326Z,92.21
2024-01-10T09:35:31.273Z,92.53
2024-01-10T09:36:31.170Z,92.21
2024-01-10T09:37:31.185Z,92.43
2024-01-10T09:38:31.214Z,91.89
2024-01-10T09:39:31.159Z,92.21
2024-01-10T09:40:31.168Z,91.58
2024-01-10T09:41:31.660Z,91.68
2024-01-10T09:42:31.318Z,91.11
2024-01-10T09:43:31.108Z,90.37
2024-01-10T09:44:31.132Z,90.90
2024-01-10T09:45:31.074Z,90.58
2024-01-10T09:46:31.059Z,89.94
2024-01-10T09:47:31.425Z,89.51
2024-01-10T09:48:31.090Z,89.73
2024-01-10T09:49:31.107Z,89.48
2024-01-10T09:50:31.114Z,89.20
2024-01-10T09:51:31.010Z,88.03
2024-01-10T09:52:31.102Z,88.95
2024-01-10T09:53:31.070Z,88.95
2024-01-10T09:54:30.987Z,87.95
2024-01-10T09:55:30.986Z,88.52
2024-01-10T09:56:31.065Z,87.95
2024-01-10T09:57:31.078Z,88.80
2024-01-10T09:58:30.951Z,88.17
2024-01-10T09:59:30.996Z,87.95
2024-01-10T10:00:31.149Z,88.44
2024-01-10T10:01:30.986Z,88.12
2024-01-10T10:02:31.007Z,87.06
2024-01-10T10:03:30.917Z,87.38
2024-01-10T10:04:30.868Z,87.49
2024-01-10T10:05:30.943Z,86.43
2024-01-10T10:06:31.028Z,86.00
2024-01-10T10:07:30.915Z,86.00
2024-01-10T10:08:30.900Z,86.00
2024-01-10T10:09:30.828Z,86.43
2024-01-10T10:10:30.812Z,85.69
2024-01-10T10:11:30.861Z,85.69
2024-01-10T10:12:30.812Z,85.75
2024-01-10T10:13:30.789Z,85.75
2024-01-10T10:14:30.961Z,85.22
2024-01-10T10:15:30.788Z,85.43
2024-01-10T10:16:30.765Z,85.43
2024-01-10T10:17:30.892Z,85.75
2024-01-10T10:18:30.942Z,85.43
2024-01-10T10:19:38.216Z,85.33
2024-01-10T10:20:31.735Z,86.03
2024-01-10T10:21:30.724Z,85.18
2024-01-10T10:22:30.687Z,85.18
2024-01-10T10:23:30.722Z,85.71
2024-01-10T10:24:30.669Z,84.86
2024-01-10T10:25:30.761Z,85.46
2024-01-10T10:26:31.153Z,85.57
2024-01-10T10:27:30.635Z,84.83
2024-01-10T10:28:35.674Z,84.30
2024-01-10T10:29:31.627Z,84.16
2024-01-10T10:30:30.693Z,84.26
2024-01-10T10:31:30.588Z,84.05
2024-01-10T10:32:30.814Z,84.26
2024-01-10T10:33:30.640Z,84.36
2024-01-10T10:34:30.648Z,84.33
2024-01-10T10:35:37.880Z,84.44
2024-01-10T10:36:31.533Z,84.22
2024-01-10T10:37:30.568Z,84.44
2024-01-10T10:38:30.589Z,83.37
2024-01-10T10:39:30.593Z,83.48
2024-01-10T10:40:30.645Z,83.27
2024-01-10T10:41:30.542Z,83.55
2024-01-10T10:43:30.533Z,82.98
2024-01-10T10:44:30.878Z,83.62
2024-01-10T10:45:30.556Z,83.58
2024-01-10T10:46:30.591Z,83.37
2024-01-10T10:47:30.505Z,83.44
2024-01-10T10:48:30.552Z,83.33
2024-01-10T10:49:30.478Z,82.70
2024-01-10T10:50:30.434Z,82.70
2024-01-10T10:51:30.371Z,81.74
2024-01-10T10:52:30.357Z,81.54
2024-01-10T10:53:30.524Z,81.32
2024-01-10T10:54:30.348Z,80.90
2024-01-10T10:55:30.336Z,81.01
2024-01-10T10:56:30.374Z,80.69
2024-01-10T10:57:30.307Z,80.94
2024-01-10T10:58:30.324Z,80.09
2024-01-10T10:59:30.387Z,80.73
2024-01-10T11:00:30.325Z,80.41
2024-01-10T11:01:30.265Z,81.15
2024-01-10T11:02:31.968Z,80.48
2024-01-10T11:03:30.242Z,81.01
2024-01-10T11:04:30.314Z,80.55
2024-01-10T11:05:30.370Z,80.87
2024-01-10T11:06:30.270Z,81.35
2024-01-10T11:07:30.283Z,81.21
2024-01-10T11:08:30.313Z,81.11
2024-01-10T11:09:30.237Z,80.90
2024-01-10T11:10:30.185Z,79.53
2024-01-10T11:11:30.234Z,79.84
2024-01-10T11:12:30.158Z,79.38
2024-01-10T11:13:30.128Z,79.80
2024-01-10T11:14:30.144Z,80.33
2024-01-10T11:15:30.115Z,80.12
2024-01-10T11:16:30.260Z,80.02
2024-01-10T11:17:30.146Z,80.08
2024-01-10T11:18:30.106Z,80.40
2024-01-10T11:19:30.079Z,80.19
2024-01-10T11:20:30.081Z,79.17
2024-01-10T11:21:30.053Z,78.54
2024-01-10T11:22:30.033Z,78.64
2024-01-10T11:23:30.124Z,78.96
2024-01-10T11:24:30.017Z,78.92
2024-01-10T11:25:30.065Z,78.61
2024-01-10T11:26:30.213Z,78.30
2024-01-10T11:27:29.985Z,78.33
2024-01-10T11:28:29.982Z,78.22
2024-01-10T11:29:29.985Z,78.44
2024-01-10T11:30:29.983Z,78.02
2024-01-10T11:31:29.969Z,78.54
2024-01-10T11:32:30.004Z,78.33
2024-01-10T11:33:29.957Z,79.03
2024-01-10T11:34:29.962Z,78.82
2024-01-10T11:35:29.966Z,78.44
2024-01-10T11:36:29.898Z,78.33
2024-01-10T11:37:29.873Z,77.24
2024-01-10T11:38:29.894Z,77.38
2024-01-10T11:39:29.857Z,77.56
2024-01-10T11:40:29.858Z,77.03
2024-01-10T11:41:29.854Z,77.14
2024-01-10T11:42:29.821Z,76.72
2024-01-10T11:43:29.802Z,77.03
2024-01-10T11:44:30.069Z,78.36
2024-01-10T11:45:29.795Z,78.36
2024-01-10T11:46:29.768Z,77.10
2024-01-10T11:47:29.905Z,76.68
2024-01-10T11:48:29.937Z,77.00
2024-01-10T11:49:29.798Z,77.20
2024-01-10T11:50:29.744Z,76.36
2024-01-10T11:51:29.723Z,76.78
2024-01-10T11:52:29.708Z,77.20
2024-01-10T11:53:29.716Z,77.31
2024-01-10T11:54:29.703Z,76.68
2024-01-10T11:55:29.671Z,77.10
2024-01-10T11:56:36.614Z,77.28
2024-01-10T11:57:32.066Z,77.38
2024-01-10T11:58:30.186Z,77.17
2024-01-10T11:59:29.661Z,76.54
2024-01-10T12:00:29.619Z,76.82
2024-01-10T12:01:29.606Z,77.03
2024-01-10T12:02:29.714Z,77.49
2024-01-10T12:03:29.601Z,77.35
2024-01-10T12:04:38.486Z,76.40
2024-01-10T12:05:30.646Z,76.57
2024-01-10T12:06:29.651Z,76.37
2024-01-10T12:07:29.621Z,76.57
2024-01-10T12:08:29.588Z,76.89
2024-01-10T12:09:31.526Z,76.23
2024-01-10T12:10:29.509Z,75.52
2024-01-10T12:11:29.515Z,75.73
2024-01-10T12:12:29.493Z,75.73
2024-01-10T12:13:29.489Z,76.05
2024-01-10T12:14:29.489Z,75.70
2024-01-10T12:15:29.484Z,75.38
2024-01-10T12:16:29.448Z,75.73
2024-01-10T12:17:29.491Z,74.58
2024-01-10T12:18:29.492Z,75.70
2024-01-10T12:19:29.449Z,76.12
2024-01-10T12:20:29.499Z,75.81
2024-01-10T12:21:29.393Z,76.01
2024-01-10T12:22:29.396Z,75.38
2024-01-10T12:23:29.368Z,75.67
2024-01-10T12:24:29.363Z,75.24
2024-01-10T12:25:29.340Z,75.46
2024-01-10T12:26:29.375Z,75.67
2024-01-10T12:27:30.547Z,75.14
2024-01-10T12:28:29.314Z,75.21
2024-01-10T12:29:29.350Z,74.90
2024-01-10T12:30:29.353Z,75.24
2024-01-10T12:31:29.288Z,74.93
2024-01-10T12:32:29.338Z,74.62
2024-01-10T12:33:29.329Z,75.24
2024-01-10T12:34:29.252Z,76.09
2024-01-10T12:35:29.376Z,75.04
2024-01-10T12:36:29.248Z,74.62
2024-01-10T12:37:29.220Z,75.84
2024-01-10T12:38:29.232Z,74.79
2024-01-10T12:39:29.185Z,75.10
2024-01-10T12:40:29.182Z,74.55
2024-01-10T12:41:29.257Z,74.05
2024-01-10T12:42:29.156Z,74.37
2024-01-10T12:43:29.144Z,75.00
2024-01-10T12:44:29.212Z,75.18
2024-01-10T12:45:29.120Z,74.97
2024-01-10T12:46:29.129Z,74.44
2024-01-10T12:47:29.306Z,73.92
2024-01-10T12:48:29.152Z,73.43
2024-01-10T12:49:29.079Z,73.11
2024-01-10T12:50:29.473Z,73.85
2024-01-10T12:51:29.072Z,74.02
2024-01-10T12:52:29.062Z,74.09
2024-01-10T12:53:29.151Z,73.60